sensor_id;sensor_type;location;lat;lon;timestamp;P1;durP1;ratioP1;P2;durP2;ratioP2
77012;SDS011;67260;53.130;17.982;2023-03-12T00:02:00;7.30;;;2.10;;
77012;SDS011;67260;53.130;17.982;2023-03-12T00:04:26;7.50;;;2.70;;
77012;SDS011;67260;53.130;17.982;2023-03-12T00:09:20;10.50;;;3.00;;
77012;SDS011;67260;53.130;17.982;2023-03-12T00:11:46;7.40;;;2.40;;
77012;SDS011;67260;53.130;17.982;2023-03-12T00:16:40;7.80;;;2.10;;
77012;SDS011;67260;53.130;17.982;2023-03-12T00:21:36;3.80;;;1.70;;
77012;SDS011;67260;53.130;17.982;2023-03-12T00:24:03;5.20;;;1.90;;
77012;SDS011;67260;53.130;17.982;2023-03-12T00:26:31;6.30;;;2.20;;
77012;SDS011;67260;53.130;17.982;2023-03-12T00:28:57;5.60;;;2.10;;
77012;SDS011;67260;53.130;17.982;2023-03-12T00:31:25;5.90;;;1.90;;
77012;SDS011;67260;53.130;17.982;2023-03-12T00:33:54;6.70;;;2.20;;
77012;SDS011;67260;53.130;17.982;2023-03-12T00:36:23;6.50;;;2.60;;
77012;SDS011;67260;53.130;17.982;2023-03-12T00:38:52;5.30;;;2.20;;
77012;SDS011;67260;53.130;17.982;2023-03-12T00:41:20;5.90;;;1.80;;
77012;SDS011;67260;53.130;17.982;2023-03-12T00:43:48;5.80;;;2.20;;
77012;SDS011;67260;53.130;17.982;2023-03-12T00:46:16;5.60;;;2.30;;
77012;SDS011;67260;53.130;17.982;2023-03-12T00:48:43;6.50;;;2.10;;
77012;SDS011;67260;53.130;17.982;2023-03-12T00:51:11;5.60;;;2.70;;
77012;SDS011;67260;53.130;17.982;2023-03-12T00:53:37;5.30;;;1.90;;
77012;SDS011;67260;53.130;17.982;2023-03-12T00:56:05;4.90;;;1.90;;
77012;SDS011;67260;53.130;17.982;2023-03-12T00:58:32;4.00;;;2.00;;
77012;SDS011;67260;53.130;17.982;2023-03-12T01:03:25;5.30;;;1.90;;
77012;SDS011;67260;53.130;17.982;2023-03-12T01:05:53;5.50;;;1.90;;
77012;SDS011;67260;53.130;17.982;2023-03-12T01:08:23;6.50;;;2.80;;
77012;SDS011;67260;53.130;17.982;2023-03-12T01:10:50;7.30;;;2.60;;
77012;SDS011;67260;53.130;17.982;2023-03-12T01:13:18;6.50;;;2.10;;
77012;SDS011;67260;53.130;17.982;2023-03-12T01:15:45;5.50;;;2.00;;
77012;SDS011;67260;53.130;17.982;2023-03-12T01:18:11;5.50;;;2.10;;
77012;SDS011;67260;53.130;17.982;2023-03-12T01:20:38;5.70;;;1.70;;
77012;SDS011;67260;53.130;17.982;2023-03-12T01:23:06;5.40;;;2.20;;
77012;SDS011;67260;53.130;17.982;2023-03-12T01:25:34;4.60;;;2.00;;
77012;SDS011;67260;53.130;17.982;2023-03-12T01:28:01;8.20;;;2.90;;
77012;SDS011;67260;53.130;17.982;2023-03-12T01:30:29;5.20;;;2.20;;
77012;SDS011;67260;53.130;17.982;2023-03-12T01:32:56;5.10;;;1.70;;
77012;SDS011;67260;53.130;17.982;2023-03-12T01:35:23;5.90;;;2.30;;
77012;SDS011;67260;53.130;17.982;2023-03-12T01:37:50;6.10;;;2.60;;
77012;SDS011;67260;53.130;17.982;2023-03-12T01:40:19;6.00;;;1.90;;
77012;SDS011;67260;53.130;17.982;2023-03-12T01:42:51;6.80;;;2.40;;
77012;SDS011;67260;53.130;17.982;2023-03-12T01:48:24;4.10;;;1.80;;
77012;SDS011;67260;53.130;17.982;2023-03-12T01:50:52;3.20;;;1.50;;
77012;SDS011;67260;53.130;17.982;2023-03-12T01:53:20;5.80;;;2.00;;
77012;SDS011;67260;53.130;17.982;2023-03-12T01:55:48;4.60;;;1.90;;
77012;SDS011;67260;53.130;17.982;2023-03-12T01:58:16;4.60;;;1.50;;
77012;SDS011;67260;53.130;17.982;2023-03-12T02:00:43;4.70;;;2.00;;
77012;SDS011;67260;53.130;17.982;2023-03-12T02:03:10;4.80;;;1.60;;
77012;SDS011;67260;53.130;17.982;2023-03-12T02:08:16;4.40;;;1.90;;
77012;SDS011;67260;53.130;17.982;2023-03-12T02:10:43;3.90;;;1.60;;
77012;SDS011;67260;53.130;17.982;2023-03-12T02:13:11;7.10;;;1.90;;
77012;SDS011;67260;53.130;17.982;2023-03-12T02:15:43;6.10;;;2.30;;
77012;SDS011;67260;53.130;17.982;2023-03-12T02:18:10;4.50;;;1.90;;
77012;SDS011;67260;53.130;17.982;2023-03-12T02:20:48;4.10;;;1.70;;
77012;SDS011;67260;53.130;17.982;2023-03-12T02:23:32;5.30;;;1.80;;
77012;SDS011;67260;53.130;17.982;2023-03-12T02:26:07;7.10;;;2.20;;
77012;SDS011;67260;53.130;17.982;2023-03-12T02:28:37;5.80;;;1.70;;
77012;SDS011;67260;53.130;17.982;2023-03-12T02:31:10;4.30;;;2.10;;
77012;SDS011;67260;53.130;17.982;2023-03-12T02:33:40;6.10;;;2.30;;
77012;SDS011;67260;53.130;17.982;2023-03-12T02:36:07;6.50;;;2.30;;
77012;SDS011;67260;53.130;17.982;2023-03-12T02:38:36;3.90;;;1.80;;
77012;SDS011;67260;53.130;17.982;2023-03-12T02:41:17;5.90;;;2.10;;
77012;SDS011;67260;53.130;17.982;2023-03-12T02:46:37;6.50;;;2.30;;
77012;SDS011;67260;53.130;17.982;2023-03-12T02:49:10;4.20;;;1.90;;
77012;SDS011;67260;53.130;17.982;2023-03-12T02:51:39;4.00;;;1.70;;
77012;SDS011;67260;53.130;17.982;2023-03-12T02:54:06;5.30;;;1.80;;
77012;SDS011;67260;53.130;17.982;2023-03-12T02:56:34;4.30;;;1.70;;
77012;SDS011;67260;53.130;17.982;2023-03-12T03:01:27;2.90;;;1.00;;
77012;SDS011;67260;53.130;17.982;2023-03-12T03:06:22;2.00;;;0.90;;
77012;SDS011;67260;53.130;17.982;2023-03-12T03:08:49;2.60;;;1.10;;
77012;SDS011;67260;53.130;17.982;2023-03-12T03:11:16;4.20;;;1.30;;
77012;SDS011;67260;53.130;17.982;2023-03-12T03:13:43;4.20;;;1.50;;
77012;SDS011;67260;53.130;17.982;2023-03-12T03:16:11;3.30;;;1.20;;
77012;SDS011;67260;53.130;17.982;2023-03-12T03:18:39;2.80;;;1.30;;
77012;SDS011;67260;53.130;17.982;2023-03-12T03:23:33;3.10;;;1.10;;
77012;SDS011;67260;53.130;17.982;2023-03-12T03:26:01;4.60;;;1.40;;
77012;SDS011;67260;53.130;17.982;2023-03-12T03:28:29;4.50;;;1.30;;
77012;SDS011;67260;53.130;17.982;2023-03-12T03:30:56;5.40;;;1.50;;
77012;SDS011;67260;53.130;17.982;2023-03-12T03:33:27;2.60;;;1.10;;
77012;SDS011;67260;53.130;17.982;2023-03-12T03:35:57;3.70;;;1.20;;
77012;SDS011;67260;53.130;17.982;2023-03-12T03:38:26;3.70;;;1.60;;
77012;SDS011;67260;53.130;17.982;2023-03-12T03:40:54;3.60;;;1.30;;
77012;SDS011;67260;53.130;17.982;2023-03-12T03:43:21;1.70;;;0.80;;
77012;SDS011;67260;53.130;17.982;2023-03-12T03:45:56;2.70;;;1.00;;
77012;SDS011;67260;53.130;17.982;2023-03-12T03:48:24;2.80;;;0.90;;
77012;SDS011;67260;53.130;17.982;2023-03-12T03:50:51;3.80;;;1.00;;
77012;SDS011;67260;53.130;17.982;2023-03-12T03:53:19;3.30;;;0.90;;
77012;SDS011;67260;53.130;17.982;2023-03-12T03:55:47;8.10;;;1.40;;
77012;SDS011;67260;53.130;17.982;2023-03-12T03:58:14;3.00;;;0.80;;
77012;SDS011;67260;53.130;17.982;2023-03-12T04:00:43;3.50;;;0.90;;
77012;SDS011;67260;53.130;17.982;2023-03-12T04:03:11;3.90;;;0.90;;
77012;SDS011;67260;53.130;17.982;2023-03-12T04:05:39;2.60;;;0.90;;
77012;SDS011;67260;53.130;17.982;2023-03-12T04:08:11;3.20;;;1.20;;
77012;SDS011;67260;53.130;17.982;2023-03-12T04:10:39;3.90;;;1.10;;
77012;SDS011;67260;53.130;17.982;2023-03-12T04:15:32;2.50;;;0.80;;
77012;SDS011;67260;53.130;17.982;2023-03-12T04:17:59;3.70;;;0.80;;
77012;SDS011;67260;53.130;17.982;2023-03-12T04:20:27;3.90;;;0.90;;
77012;SDS011;67260;53.130;17.982;2023-03-12T04:22:53;2.40;;;0.80;;
77012;SDS011;67260;53.130;17.982;2023-03-12T04:27:47;1.50;;;0.70;;
77012;SDS011;67260;53.130;17.982;2023-03-12T04:30:14;4.40;;;1.30;;
77012;SDS011;67260;53.130;17.982;2023-03-12T04:35:07;2.90;;;1.20;;
77012;SDS011;67260;53.130;17.982;2023-03-12T04:40:02;3.00;;;0.70;;
77012;SDS011;67260;53.130;17.982;2023-03-12T04:42:33;3.50;;;0.90;;
77012;SDS011;67260;53.130;17.982;2023-03-12T04:45:02;3.60;;;1.20;;
77012;SDS011;67260;53.130;17.982;2023-03-12T04:47:30;4.20;;;1.20;;
77012;SDS011;67260;53.130;17.982;2023-03-12T04:49:57;5.60;;;1.60;;
77012;SDS011;67260;53.130;17.982;2023-03-12T04:52:33;4.40;;;1.30;;
77012;SDS011;67260;53.130;17.982;2023-03-12T04:57:27;3.30;;;1.20;;
77012;SDS011;67260;53.130;17.982;2023-03-12T04:59:54;2.60;;;1.10;;
77012;SDS011;67260;53.130;17.982;2023-03-12T05:02:20;3.80;;;1.10;;
77012;SDS011;67260;53.130;17.982;2023-03-12T05:04:47;4.30;;;1.60;;
77012;SDS011;67260;53.130;17.982;2023-03-12T05:07:14;3.20;;;0.80;;
77012;SDS011;67260;53.130;17.982;2023-03-12T05:09:41;4.00;;;1.70;;
77012;SDS011;67260;53.130;17.982;2023-03-12T05:12:09;4.10;;;1.50;;
77012;SDS011;67260;53.130;17.982;2023-03-12T05:14:36;2.20;;;1.00;;
77012;SDS011;67260;53.130;17.982;2023-03-12T05:17:05;5.70;;;1.60;;
77012;SDS011;67260;53.130;17.982;2023-03-12T05:19:33;2.30;;;0.90;;
77012;SDS011;67260;53.130;17.982;2023-03-12T05:22:00;4.90;;;1.40;;
77012;SDS011;67260;53.130;17.982;2023-03-12T05:24:28;3.70;;;1.20;;
77012;SDS011;67260;53.130;17.982;2023-03-12T05:26:55;4.60;;;1.00;;
77012;SDS011;67260;53.130;17.982;2023-03-12T05:29:23;4.70;;;1.30;;
77012;SDS011;67260;53.130;17.982;2023-03-12T05:31:50;3.80;;;1.10;;
77012;SDS011;67260;53.130;17.982;2023-03-12T05:34:17;2.80;;;0.90;;
77012;SDS011;67260;53.130;17.982;2023-03-12T05:36:44;2.70;;;1.00;;
77012;SDS011;67260;53.130;17.982;2023-03-12T05:39:12;5.70;;;1.30;;
77012;SDS011;67260;53.130;17.982;2023-03-12T05:41:39;4.00;;;1.20;;
77012;SDS011;67260;53.130;17.982;2023-03-12T05:44:11;2.70;;;1.00;;
77012;SDS011;67260;53.130;17.982;2023-03-12T05:46:42;2.30;;;0.80;;
77012;SDS011;67260;53.130;17.982;2023-03-12T05:49:09;4.40;;;1.40;;
77012;SDS011;67260;53.130;17.982;2023-03-12T05:51:36;5.40;;;1.30;;
77012;SDS011;67260;53.130;17.982;2023-03-12T05:54:03;9.80;;;1.80;;
77012;SDS011;67260;53.130;17.982;2023-03-12T05:56:30;6.90;;;1.80;;
77012;SDS011;67260;53.130;17.982;2023-03-12T05:58:57;5.00;;;1.30;;
77012;SDS011;67260;53.130;17.982;2023-03-12T06:01:25;4.90;;;2.00;;
77012;SDS011;67260;53.130;17.982;2023-03-12T06:03:55;7.80;;;3.00;;
77012;SDS011;67260;53.130;17.982;2023-03-12T06:06:23;2.80;;;0.90;;
77012;SDS011;67260;53.130;17.982;2023-03-12T06:08:51;5.00;;;1.50;;
77012;SDS011;67260;53.130;17.982;2023-03-12T06:11:17;2.30;;;0.70;;
77012;SDS011;67260;53.130;17.982;2023-03-12T06:13:44;5.40;;;1.50;;
77012;SDS011;67260;53.130;17.982;2023-03-12T06:18:51;3.30;;;0.90;;
77012;SDS011;67260;53.130;17.982;2023-03-12T06:21:20;2.90;;;0.90;;
77012;SDS011;67260;53.130;17.982;2023-03-12T06:23:49;4.40;;;0.90;;
77012;SDS011;67260;53.130;17.982;2023-03-12T06:26:21;4.10;;;1.20;;
77012;SDS011;67260;53.130;17.982;2023-03-12T06:28:49;2.30;;;0.80;;
77012;SDS011;67260;53.130;17.982;2023-03-12T06:31:17;2.90;;;1.10;;
77012;SDS011;67260;53.130;17.982;2023-03-12T06:33:45;3.80;;;1.00;;
77012;SDS011;67260;53.130;17.982;2023-03-12T06:36:12;4.10;;;1.00;;
77012;SDS011;67260;53.130;17.982;2023-03-12T06:38:40;3.30;;;0.80;;
77012;SDS011;67260;53.130;17.982;2023-03-12T06:41:08;3.10;;;0.90;;
77012;SDS011;67260;53.130;17.982;2023-03-12T06:43:36;4.60;;;1.10;;
77012;SDS011;67260;53.130;17.982;2023-03-12T06:46:05;3.90;;;1.10;;
77012;SDS011;67260;53.130;17.982;2023-03-12T06:48:33;4.10;;;1.20;;
77012;SDS011;67260;53.130;17.982;2023-03-12T06:51:10;4.40;;;1.00;;
77012;SDS011;67260;53.130;17.982;2023-03-12T06:53:38;3.40;;;0.90;;
77012;SDS011;67260;53.130;17.982;2023-03-12T06:56:05;3.30;;;0.80;;
77012;SDS011;67260;53.130;17.982;2023-03-12T06:58:32;2.20;;;0.80;;
77012;SDS011;67260;53.130;17.982;2023-03-12T07:00:59;3.20;;;1.00;;
77012;SDS011;67260;53.130;17.982;2023-03-12T07:03:26;4.00;;;1.10;;
77012;SDS011;67260;53.130;17.982;2023-03-12T07:08:21;3.40;;;1.00;;
77012;SDS011;67260;53.130;17.982;2023-03-12T07:10:48;5.90;;;1.20;;
77012;SDS011;67260;53.130;17.982;2023-03-12T07:13:15;3.60;;;1.20;;
77012;SDS011;67260;53.130;17.982;2023-03-12T07:15:41;5.50;;;1.20;;
77012;SDS011;67260;53.130;17.982;2023-03-12T07:18:10;7.80;;;1.00;;
77012;SDS011;67260;53.130;17.982;2023-03-12T07:20:38;7.00;;;1.50;;
77012;SDS011;67260;53.130;17.982;2023-03-12T07:23:06;4.00;;;1.20;;
77012;SDS011;67260;53.130;17.982;2023-03-12T07:25:35;3.20;;;1.10;;
77012;SDS011;67260;53.130;17.982;2023-03-12T07:28:07;4.00;;;1.20;;
77012;SDS011;67260;53.130;17.982;2023-03-12T07:30:34;2.20;;;0.80;;
77012;SDS011;67260;53.130;17.982;2023-03-12T07:33:02;6.00;;;1.40;;
77012;SDS011;67260;53.130;17.982;2023-03-12T07:35:29;4.70;;;1.10;;
77012;SDS011;67260;53.130;17.982;2023-03-12T07:37:58;10.60;;;3.60;;
77012;SDS011;67260;53.130;17.982;2023-03-12T07:40:25;6.00;;;1.60;;
77012;SDS011;67260;53.130;17.982;2023-03-12T07:42:53;4.60;;;1.40;;
77012;SDS011;67260;53.130;17.982;2023-03-12T07:45:19;5.50;;;1.50;;
77012;SDS011;67260;53.130;17.982;2023-03-12T07:47:47;5.70;;;1.40;;
77012;SDS011;67260;53.130;17.982;2023-03-12T07:50:14;3.80;;;1.10;;
77012;SDS011;67260;53.130;17.982;2023-03-12T07:52:42;4.50;;;1.40;;
77012;SDS011;67260;53.130;17.982;2023-03-12T07:55:09;4.20;;;1.50;;
77012;SDS011;67260;53.130;17.982;2023-03-12T07:57:36;7.00;;;1.20;;
77012;SDS011;67260;53.130;17.982;2023-03-12T08:00:04;5.60;;;1.20;;
77012;SDS011;67260;53.130;17.982;2023-03-12T08:02:38;6.90;;;1.70;;
77012;SDS011;67260;53.130;17.982;2023-03-12T08:05:05;5.00;;;1.40;;
77012;SDS011;67260;53.130;17.982;2023-03-12T08:07:33;8.00;;;1.60;;
77012;SDS011;67260;53.130;17.982;2023-03-12T08:10:01;4.80;;;1.50;;
77012;SDS011;67260;53.130;17.982;2023-03-12T08:12:30;3.00;;;0.80;;
77012;SDS011;67260;53.130;17.982;2023-03-12T08:14:57;3.30;;;0.80;;
77012;SDS011;67260;53.130;17.982;2023-03-12T08:17:25;5.90;;;1.40;;
77012;SDS011;67260;53.130;17.982;2023-03-12T08:19:51;2.50;;;0.90;;
77012;SDS011;67260;53.130;17.982;2023-03-12T08:22:18;3.20;;;0.90;;
77012;SDS011;67260;53.130;17.982;2023-03-12T08:24:45;3.90;;;1.00;;
77012;SDS011;67260;53.130;17.982;2023-03-12T08:27:11;4.50;;;1.20;;
77012;SDS011;67260;53.130;17.982;2023-03-12T08:29:39;3.60;;;1.30;;
77012;SDS011;67260;53.130;17.982;2023-03-12T08:32:07;4.60;;;1.70;;
77012;SDS011;67260;53.130;17.982;2023-03-12T08:34:35;7.70;;;1.50;;
77012;SDS011;67260;53.130;17.982;2023-03-12T08:37:02;6.20;;;1.40;;
77012;SDS011;67260;53.130;17.982;2023-03-12T08:41:56;6.60;;;1.30;;
77012;SDS011;67260;53.130;17.982;2023-03-12T08:44:23;8.80;;;1.50;;
77012;SDS011;67260;53.130;17.982;2023-03-12T08:46:50;6.50;;;1.60;;
77012;SDS011;67260;53.130;17.982;2023-03-12T08:49:18;3.30;;;1.00;;
77012;SDS011;67260;53.130;17.982;2023-03-12T08:51:46;5.10;;;1.60;;
77012;SDS011;67260;53.130;17.982;2023-03-12T08:56:39;5.60;;;1.10;;
77012;SDS011;67260;53.130;17.982;2023-03-12T08:59:10;3.00;;;1.00;;
77012;SDS011;67260;53.130;17.982;2023-03-12T09:01:37;3.90;;;1.60;;
77012;SDS011;67260;53.130;17.982;2023-03-12T09:04:05;4.10;;;1.00;;
77012;SDS011;67260;53.130;17.982;2023-03-12T09:06:32;4.60;;;1.00;;
77012;SDS011;67260;53.130;17.982;2023-03-12T09:09:00;4.90;;;1.50;;
77012;SDS011;67260;53.130;17.982;2023-03-12T09:11:32;7.10;;;1.60;;
77012;SDS011;67260;53.130;17.982;2023-03-12T09:13:59;6.00;;;1.50;;
77012;SDS011;67260;53.130;17.982;2023-03-12T09:16:27;9.70;;;1.90;;
77012;SDS011;67260;53.130;17.982;2023-03-12T09:18:54;4.70;;;1.20;;
77012;SDS011;67260;53.130;17.982;2023-03-12T09:21:21;6.30;;;1.60;;
77012;SDS011;67260;53.130;17.982;2023-03-12T09:23:48;7.00;;;1.40;;
77012;SDS011;67260;53.130;17.982;2023-03-12T09:28:41;4.50;;;1.40;;
77012;SDS011;67260;53.130;17.982;2023-03-12T09:31:10;5.60;;;1.70;;
77012;SDS011;67260;53.130;17.982;2023-03-12T09:33:37;4.50;;;1.60;;
77012;SDS011;67260;53.130;17.982;2023-03-12T09:36:04;3.20;;;1.30;;
77012;SDS011;67260;53.130;17.982;2023-03-12T09:38:31;5.00;;;1.40;;
77012;SDS011;67260;53.130;17.982;2023-03-12T09:41:02;3.60;;;1.40;;
77012;SDS011;67260;53.130;17.982;2023-03-12T09:43:37;3.50;;;1.00;;
77012;SDS011;67260;53.130;17.982;2023-03-12T09:46:11;4.10;;;1.20;;
77012;SDS011;67260;53.130;17.982;2023-03-12T09:49:01;5.50;;;1.40;;
77012;SDS011;67260;53.130;17.982;2023-03-12T09:51:40;2.90;;;1.10;;
77012;SDS011;67260;53.130;17.982;2023-03-12T09:54:20;3.00;;;1.20;;
77012;SDS011;67260;53.130;17.982;2023-03-12T09:56:53;3.80;;;1.20;;
77012;SDS011;67260;53.130;17.982;2023-03-12T09:59:23;2.90;;;1.30;;
77012;SDS011;67260;53.130;17.982;2023-03-12T10:04:25;3.40;;;1.40;;
77012;SDS011;67260;53.130;17.982;2023-03-12T10:07:11;4.80;;;1.10;;
77012;SDS011;67260;53.130;17.982;2023-03-12T10:12:31;3.20;;;1.10;;
77012;SDS011;67260;53.130;17.982;2023-03-12T10:15:24;4.30;;;1.20;;
77012;SDS011;67260;53.130;17.982;2023-03-12T10:20:47;4.80;;;1.30;;
77012;SDS011;67260;53.130;17.982;2023-03-12T10:26:15;4.30;;;1.40;;
77012;SDS011;67260;53.130;17.982;2023-03-12T10:28:52;8.20;;;2.10;;
77012;SDS011;67260;53.130;17.982;2023-03-12T10:33:55;10.30;;;2.60;;
77012;SDS011;67260;53.130;17.982;2023-03-12T10:38:58;5.40;;;1.60;;
77012;SDS011;67260;53.130;17.982;2023-03-12T10:41:27;4.90;;;1.20;;
77012;SDS011;67260;53.130;17.982;2023-03-12T10:43:57;3.60;;;1.30;;
77012;SDS011;67260;53.130;17.982;2023-03-12T10:51:52;3.40;;;0.90;;
77012;SDS011;67260;53.130;17.982;2023-03-12T10:54:37;6.50;;;2.30;;
77012;SDS011;67260;53.130;17.982;2023-03-12T10:57:06;6.00;;;1.20;;
77012;SDS011;67260;53.130;17.982;2023-03-12T10:59:35;5.40;;;1.50;;
77012;SDS011;67260;53.130;17.982;2023-03-12T11:02:27;3.40;;;1.10;;
77012;SDS011;67260;53.130;17.982;2023-03-12T11:04:54;4.10;;;1.10;;
77012;SDS011;67260;53.130;17.982;2023-03-12T11:07:22;4.50;;;1.30;;
77012;SDS011;67260;53.130;17.982;2023-03-12T11:10:02;6.10;;;1.40;;
77012;SDS011;67260;53.130;17.982;2023-03-12T11:12:38;4.10;;;1.10;;
77012;SDS011;67260;53.130;17.982;2023-03-12T11:15:18;4.60;;;1.30;;
77012;SDS011;67260;53.130;17.982;2023-03-12T11:17:50;5.60;;;1.10;;
77012;SDS011;67260;53.130;17.982;2023-03-12T11:22:47;3.70;;;1.20;;
77012;SDS011;67260;53.130;17.982;2023-03-12T11:27:53;5.70;;;1.60;;
77012;SDS011;67260;53.130;17.982;2023-03-12T11:30:35;3.50;;;1.10;;
77012;SDS011;67260;53.130;17.982;2023-03-12T11:33:04;4.40;;;1.20;;
77012;SDS011;67260;53.130;17.982;2023-03-12T11:38:34;4.70;;;1.20;;
77012;SDS011;67260;53.130;17.982;2023-03-12T11:41:18;2.60;;;0.90;;
77012;SDS011;67260;53.130;17.982;2023-03-12T11:55:48;7.20;;;1.80;;
77012;SDS011;67260;53.130;17.982;2023-03-12T12:00:56;6.40;;;2.10;;
77012;SDS011;67260;53.130;17.982;2023-03-12T12:19:56;4.70;;;1.30;;
77012;SDS011;67260;53.130;17.982;2023-03-12T12:25:50;7.40;;;2.20;;
77012;SDS011;67260;53.130;17.982;2023-03-12T12:31:17;3.60;;;1.20;;
77012;SDS011;67260;53.130;17.982;2023-03-12T12:36:52;3.10;;;1.00;;
77012;SDS011;67260;53.130;17.982;2023-03-12T12:39:35;4.90;;;1.50;;
77012;SDS011;67260;53.130;17.982;2023-03-12T12:42:14;7.30;;;1.70;;
77012;SDS011;67260;53.130;17.982;2023-03-12T12:44:47;6.90;;;1.90;;
77012;SDS011;67260;53.130;17.982;2023-03-12T12:47:18;3.70;;;1.20;;
77012;SDS011;67260;53.130;17.982;2023-03-12T12:49:52;3.80;;;1.20;;
77012;SDS011;67260;53.130;17.982;2023-03-12T12:52:23;2.60;;;0.90;;
77012;SDS011;67260;53.130;17.982;2023-03-12T13:02:45;4.70;;;1.40;;
77012;SDS011;67260;53.130;17.982;2023-03-12T13:05:27;4.10;;;1.30;;
77012;SDS011;67260;53.130;17.982;2023-03-12T13:08:09;4.50;;;1.70;;
77012;SDS011;67260;53.130;17.982;2023-03-12T13:11:02;6.60;;;1.80;;
77012;SDS011;67260;53.130;17.982;2023-03-12T13:13:30;8.80;;;2.40;;
77012;SDS011;67260;53.130;17.982;2023-03-12T13:19:00;4.70;;;1.30;;
77012;SDS011;67260;53.130;17.982;2023-03-12T13:27:28;4.90;;;1.40;;
77012;SDS011;67260;53.130;17.982;2023-03-12T13:29:56;4.20;;;1.40;;
77012;SDS011;67260;53.130;17.982;2023-03-12T13:40:51;8.30;;;2.50;;
77012;SDS011;67260;53.130;17.982;2023-03-12T13:43:31;4.60;;;1.40;;
77012;SDS011;67260;53.130;17.982;2023-03-12T13:48:43;4.80;;;1.50;;
77012;SDS011;67260;53.130;17.982;2023-03-12T13:51:18;4.20;;;1.40;;
77012;SDS011;67260;53.130;17.982;2023-03-12T13:53:49;5.40;;;1.60;;
77012;SDS011;67260;53.130;17.982;2023-03-12T13:56:24;3.60;;;1.30;;
77012;SDS011;67260;53.130;17.982;2023-03-12T13:58:54;3.30;;;1.20;;
77012;SDS011;67260;53.130;17.982;2023-03-12T14:01:28;4.80;;;1.50;;
77012;SDS011;67260;53.130;17.982;2023-03-12T14:04:07;5.50;;;2.20;;
77012;SDS011;67260;53.130;17.982;2023-03-12T14:06:49;4.30;;;1.50;;
77012;SDS011;67260;53.130;17.982;2023-03-12T14:09:30;5.40;;;1.70;;
77012;SDS011;67260;53.130;17.982;2023-03-12T14:17:32;4.50;;;1.70;;
77012;SDS011;67260;53.130;17.982;2023-03-12T14:20:20;4.50;;;1.90;;
77012;SDS011;67260;53.130;17.982;2023-03-12T14:23:07;6.60;;;2.60;;
77012;SDS011;67260;53.130;17.982;2023-03-12T14:25:41;6.50;;;2.40;;
77012;SDS011;67260;53.130;17.982;2023-03-12T14:28:19;3.50;;;1.50;;
77012;SDS011;67260;53.130;17.982;2023-03-12T14:31:01;7.10;;;2.00;;
77012;SDS011;67260;53.130;17.982;2023-03-12T14:33:34;5.90;;;1.80;;
77012;SDS011;67260;53.130;17.982;2023-03-12T14:36:10;5.40;;;1.70;;
77012;SDS011;67260;53.130;17.982;2023-03-12T14:38:43;4.20;;;1.60;;
77012;SDS011;67260;53.130;17.982;2023-03-12T14:41:14;5.70;;;2.00;;
77012;SDS011;67260;53.130;17.982;2023-03-12T14:43:49;5.90;;;2.20;;
77012;SDS011;67260;53.130;17.982;2023-03-12T14:46:19;5.60;;;1.80;;
77012;SDS011;67260;53.130;17.982;2023-03-12T14:48:49;5.70;;;1.70;;
77012;SDS011;67260;53.130;17.982;2023-03-12T14:51:21;5.70;;;1.90;;
77012;SDS011;67260;53.130;17.982;2023-03-12T14:53:53;5.50;;;1.70;;
77012;SDS011;67260;53.130;17.982;2023-03-12T14:56:21;6.30;;;1.90;;
77012;SDS011;67260;53.130;17.982;2023-03-12T14:58:55;7.50;;;2.50;;
77012;SDS011;67260;53.130;17.982;2023-03-12T15:01:25;7.00;;;2.70;;
77012;SDS011;67260;53.130;17.982;2023-03-12T15:04:02;7.50;;;2.60;;
77012;SDS011;67260;53.130;17.982;2023-03-12T15:06:34;5.10;;;1.60;;
77012;SDS011;67260;53.130;17.982;2023-03-12T15:09:13;5.10;;;2.10;;
77012;SDS011;67260;53.130;17.982;2023-03-12T15:11:45;7.30;;;2.20;;
77012;SDS011;67260;53.130;17.982;2023-03-12T15:14:20;6.50;;;2.20;;
77012;SDS011;67260;53.130;17.982;2023-03-12T15:16:49;5.40;;;1.60;;
77012;SDS011;67260;53.130;17.982;2023-03-12T15:19:19;6.60;;;2.20;;
77012;SDS011;67260;53.130;17.982;2023-03-12T15:21:48;6.90;;;2.10;;
77012;SDS011;67260;53.130;17.982;2023-03-12T15:24:16;8.00;;;2.50;;
77012;SDS011;67260;53.130;17.982;2023-03-12T15:26:46;7.80;;;2.30;;
77012;SDS011;67260;53.130;17.982;2023-03-12T15:31:43;12.90;;;2.80;;
77012;SDS011;67260;53.130;17.982;2023-03-12T15:34:13;8.70;;;3.20;;
77012;SDS011;67260;53.130;17.982;2023-03-12T15:36:52;5.70;;;1.80;;
77012;SDS011;67260;53.130;17.982;2023-03-12T15:39:23;8.50;;;2.80;;
77012;SDS011;67260;53.130;17.982;2023-03-12T15:41:52;8.00;;;3.30;;
77012;SDS011;67260;53.130;17.982;2023-03-12T15:44:24;7.40;;;2.80;;
77012;SDS011;67260;53.130;17.982;2023-03-12T15:46:53;8.10;;;3.10;;
77012;SDS011;67260;53.130;17.982;2023-03-12T15:49:30;10.50;;;3.20;;
77012;SDS011;67260;53.130;17.982;2023-03-12T15:54:32;8.00;;;3.10;;
77012;SDS011;67260;53.130;17.982;2023-03-12T15:57:14;13.50;;;3.70;;
77012;SDS011;67260;53.130;17.982;2023-03-12T15:59:49;9.50;;;3.40;;
77012;SDS011;67260;53.130;17.982;2023-03-12T16:02:34;6.40;;;2.80;;
77012;SDS011;67260;53.130;17.982;2023-03-12T16:05:02;11.00;;;4.60;;
77012;SDS011;67260;53.130;17.982;2023-03-12T16:07:30;10.50;;;4.30;;
77012;SDS011;67260;53.130;17.982;2023-03-12T16:09:56;14.40;;;4.80;;
77012;SDS011;67260;53.130;17.982;2023-03-12T16:12:23;15.40;;;6.00;;
77012;SDS011;67260;53.130;17.982;2023-03-12T16:17:17;13.20;;;5.10;;
77012;SDS011;67260;53.130;17.982;2023-03-12T16:19:46;14.60;;;5.60;;
77012;SDS011;67260;53.130;17.982;2023-03-12T16:22:12;19.70;;;7.90;;
77012;SDS011;67260;53.130;17.982;2023-03-12T16:24:39;21.60;;;8.50;;
77012;SDS011;67260;53.130;17.982;2023-03-12T16:27:09;18.20;;;6.20;;
77012;SDS011;67260;53.130;17.982;2023-03-12T16:29:39;19.60;;;7.50;;
77012;SDS011;67260;53.130;17.982;2023-03-12T16:32:10;19.90;;;7.90;;
77012;SDS011;67260;53.130;17.982;2023-03-12T16:34:40;23.40;;;9.90;;
77012;SDS011;67260;53.130;17.982;2023-03-12T16:37:10;24.70;;;9.60;;
77012;SDS011;67260;53.130;17.982;2023-03-12T16:39:38;26.70;;;9.70;;
77012;SDS011;67260;53.130;17.982;2023-03-12T16:42:09;30.90;;;12.90;;
77012;SDS011;67260;53.130;17.982;2023-03-12T16:44:50;23.80;;;11.10;;
77012;SDS011;67260;53.130;17.982;2023-03-12T16:47:17;27.40;;;11.20;;
77012;SDS011;67260;53.130;17.982;2023-03-12T16:49:44;26.30;;;11.20;;
77012;SDS011;67260;53.130;17.982;2023-03-12T16:52:18;24.00;;;10.20;;
77012;SDS011;67260;53.130;17.982;2023-03-12T16:54:49;25.90;;;10.90;;
77012;SDS011;67260;53.130;17.982;2023-03-12T16:57:21;25.80;;;11.10;;
77012;SDS011;67260;53.130;17.982;2023-03-12T16:59:59;29.30;;;12.50;;
77012;SDS011;67260;53.130;17.982;2023-03-12T17:02:30;33.60;;;13.80;;
77012;SDS011;67260;53.130;17.982;2023-03-12T17:04:57;35.60;;;14.00;;
77012;SDS011;67260;53.130;17.982;2023-03-12T17:07:24;35.20;;;14.30;;
77012;SDS011;67260;53.130;17.982;2023-03-12T17:09:50;34.50;;;13.00;;
77012;SDS011;67260;53.130;17.982;2023-03-12T17:14:57;25.10;;;9.90;;
77012;SDS011;67260;53.130;17.982;2023-03-12T17:17:25;23.30;;;9.40;;
77012;SDS011;67260;53.130;17.982;2023-03-12T17:19:52;22.90;;;8.70;;
77012;SDS011;67260;53.130;17.982;2023-03-12T17:22:19;17.60;;;6.50;;
77012;SDS011;67260;53.130;17.982;2023-03-12T17:24:46;22.30;;;8.50;;
77012;SDS011;67260;53.130;17.982;2023-03-12T17:29:39;12.50;;;4.80;;
77012;SDS011;67260;53.130;17.982;2023-03-12T17:34:33;17.80;;;6.50;;
77012;SDS011;67260;53.130;17.982;2023-03-12T17:36:59;19.80;;;7.70;;
77012;SDS011;67260;53.130;17.982;2023-03-12T17:39:26;47.80;;;16.20;;